createdAt,value
2023-02-16T07:36:41.534Z,45.50
2023-02-16T07:39:08.938Z,48.27
2023-02-16T07:41:38.937Z,46.60
2023-02-16T07:44:08.889Z,48.77
2023-02-16T07:46:36.242Z,47.60
2023-02-16T07:49:03.686Z,45.30
2023-02-16T07:51:31.802Z,48.73
2023-02-16T07:54:00.353Z,48.20
2023-02-16T07:56:29.143Z,48.43
2023-02-16T07:58:56.859Z,48.37
2023-02-16T08:01:24.226Z,49.23
2023-02-16T08:03:52.113Z,48.07
2023-02-16T08:06:20.342Z,58.72
2023-02-16T08:08:47.791Z,51.23
2023-02-16T08:11:18.200Z,48.43
2023-02-16T08:13:45.593Z,49.77
2023-02-16T08:16:14.499Z,49.13
2023-02-16T08:18:42.293Z,45.43
2023-02-16T08:21:17.710Z,46.47
2023-02-16T08:23:47.783Z,47.53
2023-02-16T08:26:18.556Z,47.83
2023-02-16T08:28:47.146Z,44.00
2023-02-16T08:31:17.047Z,46.80
2023-02-16T08:33:44.640Z,45.93
2023-02-16T08:36:18.986Z,45.53
2023-02-16T08:38:46.381Z,46.67
2023-02-16T08:41:13.775Z,47.07
2023-02-16T08:43:41.064Z,46.00
2023-02-16T08:46:09.188Z,46.73
2023-02-16T08:48:36.603Z,43.97
2023-02-16T08:51:06.730Z,45.53
2023-02-16T08:53:35.273Z,45.20
2023-02-16T08:56:03.935Z,45.33
2023-02-16T08:58:32.005Z,43.20
2023-02-16T09:00:59.419Z,45.63
2023-02-16T09:03:27.516Z,44.53
2023-02-16T09:05:55.254Z,43.63
2023-02-16T09:08:22.764Z,43.77
2023-02-16T09:10:50.472Z,42.47
2023-02-16T09:13:20.901Z,41.87
2023-02-16T09:15:48.593Z,42.40
2023-02-16T09:18:16.635Z,40.63
2023-02-16T09:20:46.864Z,41.73
2023-02-16T09:23:14.412Z,40.93
2023-02-16T09:25:42.122Z,40.97
2023-02-16T09:28:10.644Z,42.53
2023-02-16T09:30:38.845Z,40.30
2023-02-16T09:33:06.866Z,40.97
2023-02-16T09:35:34.493Z,40.93
2023-02-16T09:38:02.487Z,40.90
2023-02-16T09:40:29.821Z,42.73
2023-02-16T09:43:04.211Z,41.77
2023-02-16T09:45:35.275Z,40.43
2023-02-16T09:48:03.252Z,40.43
2023-02-16T09:50:52.751Z,41.03
2023-02-16T09:53:23.295Z,42.67
2023-02-16T09:55:51.424Z,41.60
2023-02-16T09:58:23.131Z,41.03
2023-02-16T10:00:57.229Z,41.70
2023-02-16T10:03:41.854Z,41.33
2023-02-16T10:06:15.277Z,41.30
2023-02-16T10:08:43.057Z,40.30
2023-02-16T10:11:38.968Z,42.07
2023-02-16T10:14:09.316Z,40.80
2023-02-16T10:16:41.915Z,40.33
2023-02-16T10:19:21.785Z,40.97
2023-02-16T10:21:51.424Z,40.13
2023-02-16T10:24:18.932Z,40.23
2023-02-16T10:26:54.965Z,40.37
2023-02-16T10:29:23.978Z,41.27
2023-02-16T10:32:10.183Z,40.67
2023-02-16T10:34:46.570Z,40.23
2023-02-16T10:37:26.434Z,40.63
2023-02-16T10:40:12.744Z,40.87
2023-02-16T10:42:43.923Z,38.90
2023-02-16T10:45:11.197Z,40.90
2023-02-16T10:47:40.781Z,39.37
2023-02-16T10:50:09.002Z,39.60
2023-02-16T10:52:38.237Z,39.57
2023-02-16T10:55:05.771Z,41.63
2023-02-16T10:57:33.872Z,38.80
2023-02-16T11:00:08.241Z,38.40
2023-02-16T11:02:39.895Z,39.63
2023-02-16T11:05:26.244Z,38.00
2023-02-16T11:07:58.077Z,39.07
2023-02-16T11:10:35.982Z,38.80
2023-02-16T11:13:03.876Z,40.73
2023-02-16T11:15:31.543Z,37.90
2023-02-16T11:18:01.012Z,38.50
2023-02-16T11:20:32.855Z,37.37
2023-02-16T11:23:18.464Z,35.93
2023-02-16T11:25:55.114Z,38.20
2023-02-16T11:28:33.186Z,36.47
2023-02-16T11:31:02.235Z,38.60
2023-02-16T11:33:29.823Z,33.83
2023-02-16T11:35:57.166Z,37.50
2023-02-16T11:38:35.051Z,37.07
2023-02-16T11:41:06.569Z,37.23
2023-02-16T11:43:37.248Z,36.40
2023-02-16T11:46:16.619Z,36.87
2023-02-16T11:48:44.431Z,36.97
2023-02-16T11:51:15.270Z,36.33
2023-02-16T11:53:43.656Z,37.13
2023-02-16T11:56:13.280Z,36.53
2023-02-16T11:58:41.043Z,34.97
2023-02-16T12:01:21.298Z,36.20
2023-02-16T12:04:08.234Z,34.93
2023-02-16T12:06:47.202Z,35.23
2023-02-16T12:09:26.942Z,33.73
2023-02-16T12:12:01.124Z,34.10
2023-02-16T12:14:36.654Z,35.87
2023-02-16T12:17:18.105Z,32.07
2023-02-16T12:20:01.015Z,33.27
2023-02-16T12:22:31.326Z,32.80
2023-02-16T12:25:03.863Z,33.70
2023-02-16T12:27:37.655Z,34.03
2023-02-16T12:30:09.920Z,33.17
2023-02-16T12:32:37.493Z,32.87
2023-02-16T12:35:04.787Z,32.37
2023-02-16T12:37:38.757Z,31.53
2023-02-16T12:40:15.546Z,33.07
2023-02-16T12:42:51.955Z,33.20
2023-02-16T12:45:31.717Z,34.80
2023-02-16T12:48:02.248Z,33.60
2023-02-16T12:50:31.285Z,34.97
2023-02-16T12:53:13.221Z,33.87
2023-02-16T12:55:43.422Z,34.77
2023-02-16T12:58:19.383Z,32.37
2023-02-16T13:00:48.696Z,33.83
2023-02-16T13:03:16.099Z,35.63
2023-02-16T13:05:44.312Z,35.33
2023-02-16T13:08:39.347Z,35.27
2023-02-16T13:11:32.934Z,34.83
2023-02-16T13:14:03.498Z,36.10
2023-02-16T13:16:40.345Z,34.97
2023-02-16T13:19:11.796Z,35.23
2023-02-16T13:21:54.427Z,35.20
2023-02-16T13:24:56.319Z,35.70
2023-02-16T13:27:42.515Z,35.07
2023-02-16T13:30:12.552Z,36.00
2023-02-16T13:32:42.831Z,36.63
2023-02-16T13:35:30.118Z,36.17
2023-02-16T13:38:15.795Z,35.83
2023-02-16T13:40:48.774Z,37.53
2023-02-16T13:43:19.393Z,37.60
2023-02-16T13:45:47.845Z,36.63
2023-02-16T13:48:16.543Z,36.20
2023-02-16T13:50:44.431Z,37.67
2023-02-16T13:53:22.074Z,39.10
2023-02-16T13:55:52.684Z,39.23
2023-02-16T13:58:20.009Z,39.20
2023-02-16T14:00:51.038Z,40.10
2023-02-16T14:03:21.171Z,38.73
2023-02-16T14:05:49.449Z,39.80
2023-02-16T14:08:28.140Z,39.40
2023-02-16T14:10:55.959Z,39.50
2023-02-16T14:13:38.600Z,38.13
2023-02-16T14:16:14.614Z,39.17
2023-02-16T14:18:44.382Z,41.97
2023-02-16T14:21:20.243Z,40.57
2023-02-16T14:23:54.844Z,40.20
2023-02-16T14:26:22.202Z,40.50
2023-02-16T14:28:55.245Z,40.80
2023-02-16T14:31:23.845Z,40.23
2023-02-16T14:34:06.696Z,39.63
2023-02-16T14:36:34.600Z,40.57
2023-02-16T14:39:02.421Z,42.97
2023-02-16T14:41:34.361Z,41.70
2023-02-16T14:44:04.633Z,42.83
2023-02-16T14:46:35.146Z,41.60
2023-02-16T14:49:06.560Z,42.50
2023-02-16T14:51:52.214Z,42.07
2023-02-16T14:54:19.553Z,41.67
2023-02-16T14:56:51.806Z,42.60
2023-02-16T14:59:45.612Z,40.33
2023-02-16T15:02:39.154Z,41.47
2023-02-16T15:05:19.191Z,39.87
2023-02-16T15:07:50.541Z,39.67
2023-02-16T18:09:07.774Z,41.70
2023-02-16T18:11:35.251Z,42.33
2023-02-16T18:14:02.601Z,44.23
2023-02-16T18:16:29.927Z,43.20
2023-02-16T18:18:58.156Z,42.20
2023-02-16T18:21:25.540Z,41.77
2023-02-16T18:23:52.765Z,42.77
2023-02-16T18:26:20.186Z,41.33
2023-02-16T18:28:47.776Z,43.17
2023-02-16T18:31:15.182Z,40.47
2023-02-16T18:33:42.533Z,42.53
2023-02-16T18:36:10.226Z,42.57
2023-02-16T18:38:37.600Z,41.03
2023-02-16T18:41:05.451Z,42.37
2023-02-16T18:43:32.729Z,42.33
2023-02-16T18:46:00.126Z,41.83
2023-02-16T18:48:27.628Z,42.67
2023-02-16T18:50:54.882Z,41.33
2023-02-16T18:53:22.200Z,41.27
2023-02-16T18:55:49.668Z,41.70
2023-02-16T18:58:16.987Z,39.97
2023-02-16T19:00:44.303Z,40.93
2023-02-16T19:03:11.621Z,41.17
2023-02-16T19:05:38.926Z,43.33
2023-02-16T19:08:06.298Z,40.93
2023-02-16T19:10:34.035Z,41.30
2023-02-16T19:13:02.246Z,42.27
2023-02-16T19:15:30.036Z,43.90
2023-02-16T19:17:57.354Z,44.93
2023-02-16T19:20:25.585Z,42.40
2023-02-16T19:22:53.148Z,43.60
2023-02-16T19:25:21.251Z,45.43
2023-02-16T19:27:48.568Z,43.10
2023-02-16T19:30:16.041Z,44.60
2023-02-16T19:32:43.499Z,44.60
2023-02-16T19:35:11.611Z,45.20
2023-02-16T19:37:38.917Z,45.50
2023-02-16T19:40:06.856Z,44.93
2023-02-16T19:42:34.138Z,43.37
2023-02-16T19:45:01.498Z,47.10
2023-02-16T19:47:28.839Z,45.13
2023-02-16T19:49:56.152Z,44.47
2023-02-16T19:52:23.462Z,44.10
2023-02-16T19:54:50.958Z,44.23
2023-02-16T19:57:18.264Z,43.63
2023-02-16T19:59:45.518Z,44.50
2023-02-16T20:02:14.795Z,43.70
2023-02-16T20:04:42.687Z,45.60
2023-02-16T20:07:10.086Z,45.27
2023-02-16T20:09:37.464Z,43.90
2023-02-16T20:12:05.344Z,42.97
2023-02-16T20:14:32.831Z,44.37
2023-02-16T20:17:00.107Z,45.00
2023-02-16T20:19:27.469Z,44.00
2023-02-16T20:21:54.879Z,44.97
2023-02-16T20:24:22.314Z,44.60
2023-02-16T20:26:51.939Z,45.73
2023-02-16T20:29:20.810Z,45.63
2023-02-16T20:31:52.853Z,43.70
2023-02-16T20:34:21.292Z,44.57
2023-02-16T20:36:48.819Z,46.53
2023-02-16T20:39:16.498Z,44.47
2023-02-16T20:41:43.809Z,46.60
2023-02-16T20:44:11.634Z,46.03
2023-02-16T20:46:39.760Z,45.50
2023-02-16T20:49:07.346Z,47.27
2023-02-16T20:51:36.310Z,45.27
2023-02-16T20:54:04.395Z,46.80
2023-02-16T20:56:32.694Z,46.00
2023-02-16T20:59:00.097Z,47.23
2023-02-16T21:01:31.404Z,47.27
2023-02-16T21:04:01.980Z,47.50
2023-02-16T21:06:32.446Z,48.87
2023-02-16T21:08:59.812Z,48.10
2023-02-16T21:11:27.634Z,47.83
2023-02-16T21:13:54.996Z,48.23
2023-02-16T21:16:22.729Z,48.50
2023-02-16T21:18:52.433Z,48.07
2023-02-16T21:21:24.266Z,48.83
2023-02-16T21:24:10.349Z,48.20
2023-02-16T21:26:38.090Z,46.53
2023-02-16T21:29:08.949Z,47.23
2023-02-16T21:31:59.560Z,47.90
2023-02-16T21:34:31.146Z,48.27
2023-02-16T21:37:08.860Z,47.83
2023-02-16T21:40:16.762Z,46.27
2023-02-16T21:42:44.085Z,46.43
2023-02-16T21:45:14.383Z,45.70
2023-02-16T21:48:01.403Z,48.00
2023-02-16T21:50:29.230Z,48.90
2023-02-16T21:52:56.953Z,47.60
2023-02-16T21:59:33.131Z,48.73
2023-02-16T22:02:04.239Z,47.80
2023-02-16T22:04:34.905Z,47.47
2023-02-16T22:07:02.442Z,46.83
2023-02-16T22:09:35.101Z,46.63
2023-02-16T22:12:03.091Z,48.83
2023-02-16T22:14:33.265Z,47.70
2023-02-16T22:17:09.760Z,48.70
2023-02-16T22:19:37.024Z,49.03
2023-02-16T22:22:04.353Z,47.43
2023-02-16T22:24:34.667Z,49.40
2023-02-16T22:27:05.401Z,49.53
2023-02-16T22:29:36.636Z,49.90
2023-02-16T22:32:03.983Z,48.33
2023-02-16T22:34:33.102Z,50.23
2023-02-16T22:37:02.362Z,48.50
2023-02-16T22:39:31.437Z,49.07
2023-02-16T22:42:01.965Z,52.10
2023-02-16T22:44:30.835Z,50.70
2023-02-16T22:47:01.648Z,47.97
2023-02-16T22:49:29.289Z,49.87
2023-02-16T22:51:57.046Z,49.67
2023-02-16T22:54:24.836Z,49.00
2023-02-16T22:59:33.966Z,50.53
2023-02-16T23:02:01.530Z,48.37
